createdAt,value
2022-10-05T00:00:01.063Z,99.90
2022-10-05T00:02:33.306Z,99.90
2022-10-05T00:05:01.662Z,99.90
2022-10-05T00:07:30.458Z,99.90
2022-10-05T00:10:00.110Z,99.90
2022-10-05T00:12:30.745Z,99.90
2022-10-05T00:15:00.845Z,99.90
2022-10-05T00:17:31.928Z,99.90
2022-10-05T00:20:02.474Z,99.90
2022-10-05T00:22:33.832Z,99.90
2022-10-05T00:25:02.706Z,99.90
2022-10-05T00:27:36.458Z,99.90
2022-10-05T00:30:12.561Z,99.90
2022-10-05T00:32:41.040Z,99.90
2022-10-05T00:35:09.618Z,99.90
2022-10-05T00:37:38.252Z,99.90
2022-10-05T00:40:25.364Z,99.90
2022-10-05T00:43:12.574Z,99.90
2022-10-05T00:45:53.187Z,99.90
2022-10-05T00:48:33.279Z,99.90
2022-10-05T00:51:13.083Z,99.90
2022-10-05T00:54:03.738Z,99.90
2022-10-05T00:56:38.705Z,99.90
2022-10-05T00:59:24.797Z,99.90
2022-10-05T01:02:12.774Z,99.90
2022-10-05T01:04:59.955Z,99.90
2022-10-05T01:07:47.185Z,99.90
2022-10-05T01:10:29.037Z,99.90
2022-10-05T01:13:04.811Z,99.90
2022-10-05T01:15:36.969Z,99.90
2022-10-05T01:18:20.630Z,99.90
2022-10-05T01:21:07.812Z,99.90
2022-10-05T01:23:55.002Z,99.90
2022-10-05T01:26:35.189Z,99.90
2022-10-05T01:29:18.581Z,99.90
2022-10-05T01:31:54.418Z,99.90
2022-10-05T01:34:42.723Z,99.90
2022-10-05T01:37:26.078Z,99.90
2022-10-05T01:40:09.368Z,99.90
2022-10-05T01:42:52.977Z,99.90
2022-10-05T01:45:35.778Z,99.90
2022-10-05T01:48:14.496Z,99.90
2022-10-05T01:50:51.398Z,99.90
2022-10-05T01:53:39.299Z,99.90
2022-10-05T01:56:16.002Z,99.90
2022-10-05T01:59:02.060Z,99.90
2022-10-05T02:01:41.887Z,99.90
2022-10-05T02:04:56.508Z,99.90
2022-10-05T02:07:14.169Z,99.90
2022-10-05T02:09:48.203Z,99.90
2022-10-05T02:12:19.216Z,99.90
2022-10-05T02:14:49.352Z,99.90
2022-10-05T02:17:26.992Z,99.90
2022-10-05T02:20:03.337Z,99.90
2022-10-05T02:22:49.593Z,99.90
2022-10-05T02:25:18.988Z,99.90
2022-10-05T02:27:59.600Z,99.90
2022-10-05T02:30:28.553Z,99.90
2022-10-05T02:32:59.090Z,99.90
2022-10-05T02:35:27.096Z,99.90
2022-10-05T02:38:09.782Z,99.90
2022-10-05T02:40:43.302Z,99.90
2022-10-05T02:43:21.781Z,99.90
2022-10-05T02:46:02.454Z,99.90
2022-10-05T02:48:42.471Z,99.90
2022-10-05T02:51:17.668Z,99.90
2022-10-05T02:54:04.858Z,99.90
2022-10-05T02:56:51.974Z,99.90
2022-10-05T02:59:31.788Z,99.90
2022-10-05T03:02:06.117Z,99.90
2022-10-05T03:04:49.155Z,99.90
2022-10-05T03:07:19.214Z,99.90
2022-10-05T03:10:06.630Z,99.90
2022-10-05T03:12:49.290Z,99.90
2022-10-05T03:16:00.201Z,99.90
2022-10-05T03:18:44.043Z,99.90
2022-10-05T03:21:24.684Z,99.90
2022-10-05T03:24:05.341Z,99.90
2022-10-05T03:26:45.410Z,99.90
2022-10-05T03:29:25.126Z,99.90
2022-10-05T03:31:59.153Z,99.50
2022-10-05T03:34:32.847Z,99.80
2022-10-05T03:37:08.326Z,99.90
2022-10-05T03:39:42.674Z,99.40
2022-10-05T03:42:22.485Z,98.50
2022-10-05T03:44:57.604Z,98.40
2022-10-05T03:47:38.419Z,99.00
2022-10-05T03:50:26.370Z,99.90
2022-10-05T03:52:58.436Z,99.90
2022-10-05T03:55:38.218Z,99.90
2022-10-05T03:58:11.387Z,99.90
2022-10-05T04:00:41.098Z,99.90
2022-10-05T04:03:22.383Z,99.90
2022-10-05T04:05:54.745Z,98.80
2022-10-05T04:08:27.370Z,99.90
2022-10-05T04:10:57.541Z,99.60
2022-10-05T04:13:45.514Z,98.50
2022-10-05T04:16:20.193Z,98.40
2022-10-05T04:19:00.244Z,98.70
2022-10-05T04:21:47.444Z,97.40
2022-10-05T04:24:34.538Z,98.60
2022-10-05T04:27:12.813Z,98.10
2022-10-05T04:29:52.135Z,98.90
2022-10-05T04:32:39.558Z,99.00
2022-10-05T04:35:19.263Z,98.60
2022-10-05T04:38:00.489Z,97.20
2022-10-05T04:40:41.143Z,97.40
2022-10-05T04:43:13.759Z,99.00
2022-10-05T04:46:01.767Z,97.80
2022-10-05T04:48:47.457Z,98.00
2022-10-05T04:51:27.964Z,99.40
2022-10-05T04:54:02.185Z,97.50
2022-10-05T04:56:42.789Z,98.60
2022-10-05T04:59:27.832Z,99.20
2022-10-05T05:02:08.371Z,98.60
2022-10-05T05:04:56.713Z,96.30
2022-10-05T05:07:36.553Z,97.50
2022-10-05T05:10:23.685Z,97.00
2022-10-05T05:13:04.023Z,97.00
2022-10-05T05:15:38.651Z,96.20
2022-10-05T05:18:26.634Z,97.30
2022-10-05T05:21:17.550Z,96.90
2022-10-05T05:23:50.112Z,97.30
2022-10-05T05:26:39.080Z,98.40
2022-10-05T05:29:44.604Z,98.20
2022-10-05T05:32:31.737Z,97.00
2022-10-05T05:35:19.002Z,98.00
2022-10-05T05:37:52.185Z,98.10
2022-10-05T05:40:29.460Z,95.00
2022-10-05T05:43:03.232Z,96.20
2022-10-05T05:45:46.116Z,96.60
2022-10-05T05:48:24.631Z,96.70
2022-10-05T05:51:12.981Z,95.50
2022-10-05T05:53:44.987Z,95.80
2022-10-05T05:56:21.335Z,95.50
2022-10-05T05:59:09.779Z,96.90
2022-10-05T06:01:44.633Z,97.60
2022-10-05T06:04:32.906Z,96.80
2022-10-05T06:07:03.534Z,95.60
2022-10-05T06:09:47.178Z,96.40
2022-10-05T06:12:33.139Z,95.40
2022-10-05T06:15:12.403Z,93.40
2022-10-05T06:17:47.340Z,94.80
2022-10-05T06:20:23.883Z,96.40
2022-10-05T06:22:52.655Z,94.10
2022-10-05T06:25:39.784Z,94.30
2022-10-05T06:28:11.979Z,95.70
2022-10-05T06:30:59.138Z,95.90
2022-10-05T06:33:46.341Z,94.50
2022-10-05T06:36:34.103Z,95.40
2022-10-05T06:39:17.090Z,96.00
2022-10-05T06:42:05.635Z,95.10
2022-10-05T06:44:38.544Z,94.70
2022-10-05T06:47:20.900Z,94.60
2022-10-05T06:50:08.857Z,95.20
2022-10-05T06:52:56.122Z,96.40
2022-10-05T06:55:35.932Z,93.50
2022-10-05T06:58:16.413Z,94.20
2022-10-05T07:01:03.764Z,92.90
2022-10-05T07:03:39.842Z,94.00
2022-10-05T07:06:30.935Z,94.20
2022-10-05T07:09:08.011Z,93.20
2022-10-05T07:11:59.594Z,93.10
2022-10-05T07:14:53.469Z,93.40
2022-10-05T07:17:28.820Z,92.30
2022-10-05T07:20:10.044Z,91.90
2022-10-05T07:22:44.211Z,91.60
2022-10-05T07:25:21.155Z,92.30
2022-10-05T07:27:55.481Z,93.10
2022-10-05T07:30:24.070Z,94.10
2022-10-05T07:33:02.549Z,93.60
2022-10-05T07:35:52.936Z,92.20
2022-10-05T07:38:33.322Z,93.10
2022-10-05T07:41:09.386Z,91.00
2022-10-05T07:44:02.542Z,90.90
2022-10-05T07:46:51.818Z,91.90
2022-10-05T07:49:33.164Z,92.80
2022-10-05T07:52:34.483Z,93.00
2022-10-05T07:55:14.894Z,93.40
2022-10-05T07:57:54.568Z,90.80
2022-10-05T08:00:24.217Z,92.00
2022-10-05T08:03:04.163Z,90.70
2022-10-05T08:05:43.978Z,92.10
2022-10-05T08:08:31.924Z,92.70
2022-10-05T08:11:16.106Z,92.90
2022-10-05T08:14:04.053Z,92.80
2022-10-05T08:16:33.896Z,91.10
2022-10-05T08:19:09.254Z,90.60
2022-10-05T08:21:39.732Z,89.20
2022-10-05T08:24:20.501Z,90.60
2022-10-05T08:27:09.111Z,91.40
2022-10-05T08:29:49.716Z,90.90
2022-10-05T08:32:29.027Z,91.90
2022-10-05T08:35:00.086Z,92.10
2022-10-05T08:37:33.227Z,91.90
2022-10-05T08:40:13.332Z,90.20
2022-10-05T08:42:53.832Z,91.40
2022-10-05T08:45:33.958Z,92.40
2022-10-05T08:48:11.143Z,92.40
2022-10-05T08:50:58.300Z,92.70
2022-10-05T08:53:38.012Z,92.40
2022-10-05T08:56:28.642Z,91.90
2022-10-05T08:59:11.089Z,91.10
2022-10-05T09:01:53.955Z,91.10
2022-10-05T09:04:34.104Z,91.60
2022-10-05T09:07:17.534Z,92.00
2022-10-05T09:10:00.885Z,91.90
2022-10-05T09:12:41.529Z,91.50
2022-10-05T09:15:29.518Z,92.00
2022-10-05T09:18:19.879Z,91.40
2022-10-05T09:20:54.604Z,91.80
2022-10-05T09:23:34.372Z,91.30
2022-10-05T09:26:21.601Z,92.30
2022-10-05T09:29:03.138Z,91.70
2022-10-05T09:31:51.060Z,92.00
2022-10-05T09:34:41.275Z,91.60
2022-10-05T09:37:28.927Z,91.50
2022-10-05T09:40:08.712Z,90.40
2022-10-05T09:42:45.375Z,90.40
2022-10-05T09:45:25.106Z,90.70
2022-10-05T09:48:13.119Z,91.30
2022-10-05T09:50:57.879Z,91.00
2022-10-05T09:53:45.916Z,92.60
2022-10-05T09:56:29.518Z,92.10
2022-10-05T09:59:08.716Z,91.80
2022-10-05T10:01:49.014Z,92.20
2022-10-05T10:04:30.976Z,92.20
2022-10-05T10:07:20.170Z,92.70
2022-10-05T10:10:00.789Z,92.50
2022-10-05T10:12:34.231Z,92.50
2022-10-05T10:15:24.165Z,92.40
2022-10-05T10:18:04.939Z,92.90
2022-10-05T10:20:55.892Z,92.40
2022-10-05T10:23:35.758Z,93.00
2022-10-05T10:26:23.941Z,93.10
2022-10-05T10:29:01.790Z,93.10
2022-10-05T10:31:49.228Z,93.00
2022-10-05T10:34:38.110Z,93.00
2022-10-05T10:37:17.820Z,92.60
2022-10-05T10:40:05.281Z,93.00
2022-10-05T10:42:52.577Z,92.50
2022-10-05T10:45:29.743Z,93.30
2022-10-05T10:48:17.753Z,93.70
2022-10-05T10:50:54.393Z,93.90
2022-10-05T10:53:35.207Z,94.00
2022-10-05T10:56:22.769Z,94.00
2022-10-05T10:59:04.024Z,93.90
2022-10-05T11:01:43.981Z,93.90
2022-10-05T11:04:23.890Z,94.00
2022-10-05T11:07:04.480Z,94.00
2022-10-05T11:09:48.839Z,94.20
2022-10-05T11:12:36.838Z,94.40
2022-10-05T11:15:24.109Z,94.50
2022-10-05T11:18:05.079Z,94.60
2022-10-05T11:20:53.252Z,94.90
2022-10-05T11:23:40.398Z,95.00
2022-10-05T11:26:27.645Z,95.10
2022-10-05T11:29:08.212Z,95.30
2022-10-05T11:31:48.529Z,95.40
2022-10-05T11:34:28.821Z,95.50
2022-10-05T11:37:08.943Z,95.60
2022-10-05T11:39:41.871Z,95.70
2022-10-05T11:42:17.944Z,95.80
2022-10-05T11:45:02.128Z,95.90
2022-10-05T11:47:36.662Z,95.90
2022-10-05T11:50:23.848Z,96.00
2022-10-05T11:53:11.024Z,96.10
2022-10-05T11:55:53.802Z,96.10
2022-10-05T11:58:29.871Z,96.20
2022-10-05T12:01:12.976Z,96.30
2022-10-05T12:03:50.875Z,96.40
2022-10-05T12:06:30.867Z,96.50
2022-10-05T12:09:11.405Z,96.60
2022-10-05T12:11:56.887Z,96.70
2022-10-05T12:14:34.659Z,96.80
2022-10-05T12:17:14.452Z,96.90
2022-10-05T12:19:44.735Z,97.00
2022-10-05T12:22:24.502Z,97.10
2022-10-05T12:25:04.384Z,97.00
2022-10-05T12:27:39.934Z,97.20
2022-10-05T12:30:20.594Z,97.30
2022-10-05T12:33:08.786Z,97.30
2022-10-05T12:35:55.951Z,97.40
2022-10-05T12:38:29.415Z,97.50
2022-10-05T12:41:06.092Z,97.60
2022-10-05T12:43:55.339Z,97.70
2022-10-05T12:46:31.895Z,97.70
2022-10-05T12:49:21.158Z,97.80
2022-10-05T12:52:07.918Z,97.90
2022-10-05T12:54:50.450Z,98.00
2022-10-05T12:57:31.087Z,98.20
2022-10-05T13:00:22.741Z,98.40
2022-10-05T13:02:54.976Z,98.60
2022-10-05T13:05:38.062Z,98.80
2022-10-05T13:08:18.212Z,99.00
2022-10-05T13:10:48.647Z,99.10
2022-10-05T13:13:28.372Z,99.20
2022-10-05T13:16:02.310Z,99.30
2022-10-05T13:18:44.670Z,99.40
2022-10-05T13:21:26.804Z,99.50
2022-10-05T13:24:14.872Z,99.70
2022-10-05T13:26:46.764Z,99.80
2022-10-05T13:29:23.311Z,99.90
2022-10-05T13:31:57.758Z,99.90
2022-10-05T13:34:38.112Z,99.90
2022-10-05T13:37:17.999Z,99.90
2022-10-05T13:39:57.890Z,99.90
2022-10-05T13:42:37.306Z,99.90
2022-10-05T13:45:24.751Z,99.90
2022-10-05T13:48:04.753Z,99.90
2022-10-05T13:50:38.627Z,99.90
2022-10-05T13:53:26.936Z,99.90
2022-10-05T13:56:06.365Z,99.90
2022-10-05T13:58:47.727Z,99.90
2022-10-05T14:01:17.642Z,99.90
2022-10-05T14:04:04.503Z,99.90
2022-10-05T14:06:37.543Z,99.90
2022-10-05T14:09:05.351Z,99.90
2022-10-05T14:11:36.523Z,99.90
2022-10-05T14:14:13.871Z,99.90
2022-10-05T14:16:49.304Z,99.90
2022-10-05T14:19:23.056Z,99.90
2022-10-05T14:22:02.903Z,99.90
2022-10-05T14:24:50.227Z,99.90
2022-10-05T14:27:22.559Z,99.90
2022-10-05T14:29:59.184Z,99.90
2022-10-05T14:32:30.592Z,99.90
2022-10-05T14:35:14.019Z,99.90
2022-10-05T14:37:47.407Z,99.90
2022-10-05T14:40:23.415Z,99.90
2022-10-05T14:42:52.082Z,99.90
2022-10-05T14:45:22.143Z,99.90
2022-10-05T14:48:02.858Z,99.90
2022-10-05T14:50:31.649Z,99.90
2022-10-05T14:53:01.861Z,99.90
2022-10-05T14:55:44.026Z,99.90
2022-10-05T14:58:31.976Z,99.90
2022-10-05T15:01:13.918Z,99.90
2022-10-05T15:03:47.045Z,99.90
2022-10-05T15:06:28.218Z,99.90
2022-10-05T15:09:16.947Z,99.90
2022-10-05T15:11:58.972Z,99.90
2022-10-05T15:14:32.892Z,99.90
2022-10-05T15:17:15.178Z,99.90
2022-10-05T15:20:03.096Z,99.90
2022-10-05T15:22:37.627Z,99.90
2022-10-05T15:25:16.475Z,99.90
2022-10-05T15:28:02.236Z,99.90
2022-10-05T15:30:35.938Z,99.90
2022-10-05T15:33:09.747Z,99.90
2022-10-05T15:35:56.908Z,99.90
2022-10-05T15:38:26.008Z,99.90
2022-10-05T15:41:05.815Z,99.90
2022-10-05T15:43:53.806Z,99.90
2022-10-05T15:46:35.338Z,99.90
2022-10-05T15:49:17.361Z,99.90
2022-10-05T15:52:04.468Z,99.90
2022-10-05T15:54:52.898Z,99.90
2022-10-05T15:57:22.306Z,99.90
2022-10-05T16:00:02.321Z,99.90
2022-10-05T16:02:49.478Z,99.90
2022-10-05T16:05:49.306Z,99.90
2022-10-05T16:08:42.091Z,99.90
2022-10-05T16:11:14.624Z,99.90
2022-10-05T16:13:56.843Z,99.90
2022-10-05T16:16:29.596Z,99.90
2022-10-05T16:19:06.152Z,99.90
2022-10-05T16:21:45.280Z,99.90
2022-10-05T16:24:32.399Z,99.90
2022-10-05T16:27:01.153Z,99.90
2022-10-05T16:29:39.877Z,99.90
2022-10-05T16:32:23.297Z,99.90
2022-10-05T16:35:11.822Z,99.90
2022-10-05T16:37:59.034Z,99.90
2022-10-05T16:40:39.599Z,99.90
2022-10-05T16:43:19.419Z,99.90
2022-10-05T16:45:59.292Z,99.90
2022-10-05T16:48:32.422Z,99.90
2022-10-05T16:51:15.511Z,99.90
2022-10-05T16:53:45.838Z,99.90
2022-10-05T16:56:18.526Z,99.90
2022-10-05T16:59:05.672Z,99.90
2022-10-05T17:01:43.442Z,99.90
2022-10-05T17:04:25.784Z,99.90
2022-10-05T17:07:06.406Z,99.90
2022-10-05T17:09:53.564Z,99.90
2022-10-05T17:12:40.931Z,99.90
2022-10-05T17:15:21.568Z,99.90
2022-10-05T17:18:01.376Z,99.90
2022-10-05T17:20:42.896Z,99.90
2022-10-05T17:23:22.850Z,99.90
2022-10-05T17:26:00.926Z,99.90
2022-10-05T17:28:48.111Z,99.90
2022-10-05T17:31:16.983Z,99.90
2022-10-05T17:33:56.844Z,99.90
2022-10-05T17:36:37.723Z,99.90
2022-10-05T17:39:17.511Z,99.90
2022-10-05T17:41:45.544Z,99.90
2022-10-05T17:44:21.527Z,99.90
2022-10-05T17:46:51.984Z,99.90
2022-10-05T17:49:31.786Z,99.90
2022-10-05T17:52:13.227Z,99.90
2022-10-05T17:55:12.679Z,99.90
2022-10-05T17:57:41.030Z,99.90
2022-10-05T18:00:30.444Z,99.90
2022-10-05T18:02:58.465Z,99.90
2022-10-05T18:05:30.313Z,99.90
2022-10-05T18:08:10.154Z,99.90
2022-10-05T18:10:41.278Z,99.90
2022-10-05T18:13:20.998Z,99.90
2022-10-05T18:15:50.213Z,99.90
2022-10-05T18:18:33.947Z,99.90
2022-10-05T18:21:21.312Z,99.90
2022-10-05T18:24:08.427Z,99.90
2022-10-05T18:26:40.059Z,99.90
2022-10-05T18:29:38.521Z,99.90
2022-10-05T18:32:13.837Z,99.90
2022-10-05T18:34:54.322Z,99.90
2022-10-05T18:37:42.518Z,99.90
2022-10-05T18:40:22.305Z,99.90
2022-10-05T18:42:59.585Z,99.90
2022-10-05T18:45:42.641Z,99.90
2022-10-05T18:48:27.107Z,99.90
2022-10-05T18:51:10.360Z,99.90
2022-10-05T18:53:41.572Z,99.90
2022-10-05T18:56:22.129Z,99.90
2022-10-05T18:59:10.013Z,99.90
2022-10-05T19:01:46.764Z,99.90
2022-10-05T19:04:33.927Z,99.90
2022-10-05T19:07:21.036Z,99.90
2022-10-05T19:10:09.019Z,99.90
2022-10-05T19:12:56.921Z,99.90
2022-10-05T19:15:29.314Z,99.90
2022-10-05T19:18:09.057Z,99.90
2022-10-05T19:20:48.890Z,99.90
2022-10-05T19:23:29.775Z,99.90
2022-10-05T19:26:09.800Z,99.90
2022-10-05T19:28:39.277Z,99.90
2022-10-05T19:31:27.378Z,99.90
2022-10-05T19:34:07.914Z,99.90
2022-10-05T19:36:50.305Z,99.90
2022-10-05T19:39:30.060Z,99.90
2022-10-05T19:42:17.382Z,99.90
2022-10-05T19:45:05.275Z,99.90
2022-10-05T19:47:45.097Z,99.90
2022-10-05T19:50:26.973Z,99.90
2022-10-05T19:53:04.420Z,99.90
2022-10-05T19:55:35.604Z,99.90
2022-10-05T19:58:16.427Z,99.90
2022-10-05T20:00:46.103Z,99.90
2022-10-05T20:03:26.723Z,99.90
2022-10-05T20:05:56.586Z,99.90
2022-10-05T20:08:27.770Z,99.90
2022-10-05T20:11:15.160Z,99.90
2022-10-05T20:13:57.083Z,99.90
2022-10-05T20:16:55.206Z,99.90
2022-10-05T20:19:39.765Z,99.90
2022-10-05T20:22:19.509Z,99.90
2022-10-05T20:24:51.865Z,99.90
2022-10-05T20:27:32.342Z,99.90
2022-10-05T20:30:01.857Z,99.90
2022-10-05T20:32:30.893Z,99.90
2022-10-05T20:34:58.554Z,99.90
2022-10-05T20:37:27.171Z,99.90
2022-10-05T20:39:55.451Z,99.90
2022-10-05T20:42:24.073Z,99.90
2022-10-05T20:44:56.537Z,99.90
2022-10-05T20:47:25.517Z,99.90
2022-10-05T20:49:56.177Z,99.90
2022-10-05T20:52:24.468Z,99.90
2022-10-05T20:54:59.834Z,99.90
2022-10-05T20:57:27.407Z,99.90
2022-10-05T20:59:55.672Z,99.90
2022-10-05T21:02:23.462Z,99.90
2022-10-05T21:04:51.841Z,99.90
2022-10-05T21:07:21.949Z,99.90
2022-10-05T21:09:51.223Z,99.90
2022-10-05T21:12:19.012Z,99.90
2022-10-05T21:14:47.636Z,99.90
2022-10-05T21:17:15.130Z,99.90
2022-10-05T21:19:43.380Z,99.90
2022-10-05T21:22:11.283Z,99.90
2022-10-05T21:24:39.689Z,99.90
2022-10-05T21:27:07.706Z,99.90
2022-10-05T21:29:37.522Z,99.90
2022-10-05T21:32:09.485Z,99.90
2022-10-05T21:34:37.195Z,99.90
2022-10-05T21:37:05.868Z,99.90
2022-10-05T21:39:34.876Z,99.90
2022-10-05T21:42:03.097Z,99.90
2022-10-05T21:44:30.686Z,99.90
2022-10-05T21:46:58.303Z,99.90
2022-10-05T21:49:27.069Z,99.90
2022-10-05T21:51:54.863Z,99.90
2022-10-05T21:54:24.067Z,99.90
2022-10-05T21:56:53.948Z,99.90
2022-10-05T21:59:22.878Z,99.90
2022-10-05T22:01:50.656Z,99.90
2022-10-05T22:04:18.224Z,99.90
2022-10-05T22:06:46.691Z,99.90
2022-10-05T22:09:14.215Z,99.90
2022-10-05T22:11:41.765Z,99.90
2022-10-05T22:14:10.292Z,99.90
2022-10-05T22:16:38.728Z,99.90
2022-10-05T22:19:08.254Z,99.90
2022-10-05T22:21:42.431Z,99.90
2022-10-05T22:24:12.553Z,99.90
2022-10-05T22:26:41.738Z,99.90
2022-10-05T22:29:10.017Z,99.90
2022-10-05T22:31:39.036Z,99.90
2022-10-05T22:34:06.636Z,99.90
2022-10-05T22:36:35.946Z,99.90
2022-10-05T22:39:04.071Z,99.90
2022-10-05T22:41:31.580Z,99.90
2022-10-05T22:43:59.182Z,99.90
2022-10-05T22:46:27.609Z,99.90
2022-10-05T22:48:55.245Z,99.90
2022-10-05T22:51:22.732Z,99.90
2022-10-05T22:53:51.221Z,99.90
2022-10-05T22:56:19.654Z,99.90
2022-10-05T22:58:47.181Z,99.90
2022-10-05T23:01:15.722Z,99.90
2022-10-05T23:03:43.545Z,99.90
2022-10-05T23:06:18.706Z,99.90
2022-10-05T23:08:46.348Z,99.90
2022-10-05T23:11:16.533Z,99.90
2022-10-05T23:13:44.097Z,99.90
2022-10-05T23:16:13.960Z,99.90
2022-10-05T23:18:41.869Z,99.90
2022-10-05T23:21:10.226Z,99.90
2022-10-05T23:23:39.113Z,99.90
2022-10-05T23:26:08.772Z,99.90
2022-10-05T23:28:36.413Z,99.90
2022-10-05T23:31:06.540Z,99.90
2022-10-05T23:33:34.314Z,99.90
2022-10-05T23:36:03.854Z,99.90
2022-10-05T23:38:32.006Z,99.90
2022-10-05T23:41:00.885Z,99.90
2022-10-05T23:43:29.132Z,99.90
2022-10-05T23:45:57.663Z,99.90
2022-10-05T23:48:25.900Z,99.90
2022-10-05T23:50:54.834Z,99.90
2022-10-05T23:53:22.428Z,99.90
2022-10-05T23:55:51.081Z,99.90
2022-10-05T23:58:19.147Z,99.90
